Country Club Hills, Missouri
Current Conditions -  °F | °C
As of 10:51 PM on Wednesday 22 Oct 2014 (Local Time) from KSTL Reporting Station
Few Clouds Few Clouds  
Wind Chill: 49°   Ceiling: Unl
Heat Index: 49°   Visibility: 10mi
Dew Point: 40°   Wind: 3mph
Humidity: 71%   Direction: 100°E
Pressure: 30.25"   Gusts: NA
Location:  38.7423°N, 90.2608°W
Report Text: KSTL 230351Z 10003KT 10SM FEW250 09/04 A3025 RMK AO2 SLP245 T00940044
Loading
Personal Weather Stations






























Interactive Weather Map New forecast layout! Learn more

10-Day Weather Forecast

Advertisements
Track Severe Weather on mobile